Crymych, United Kingdom
Current Conditions -  °F | °C
As of 8:50 AM on Thursday 23 Oct 2014 (Local Time) from EGOP Reporting Station
Broken Clouds Broken Clouds  
Wind Chill: 15°   Ceiling: 1600
Heat Index: 15°   Visibility: 6mi
Dew Point: 13°   Wind: 22mph
Humidity: 88%   Direction: 220°SW
Pressure: 30.06"   Gusts: NA
Location:  52.03°N, 4.68°W
Report Text: EGOP 230750Z AUTO 22019KT 9999 // FEW011/// BKN016/// BKN042/// 15/13 Q1018
Loading
Personal Weather Stations






























Interactive Weather Map
Tropical Storm Tracking
New forecast layout! Learn more

10-Day Weather Forecast

Advertisements
Track Severe Weather on mobile